createdAt,value
2022-09-17T00:01:15.560Z,97705.56
2022-09-17T00:03:42.631Z,97709.50
2022-09-17T00:06:12.639Z,97707.94
2022-09-17T00:08:41.388Z,97713.22
2022-09-17T00:11:14.854Z,97714.41
2022-09-17T00:13:43.793Z,97703.19
2022-09-17T00:16:12.196Z,97701.50
2022-09-17T00:18:41.721Z,97704.34
2022-09-17T00:21:17.212Z,97704.69
2022-09-17T00:23:44.611Z,97705.66
2022-09-17T00:26:11.599Z,97697.94
2022-09-17T00:28:39.058Z,97700.91
2022-09-17T00:31:09.720Z,97704.84
2022-09-17T00:33:37.011Z,97701.72
2022-09-17T00:36:05.169Z,97707.44
2022-09-17T00:38:33.477Z,97706.91
2022-09-17T00:41:01.361Z,97706.19
2022-09-17T00:43:40.030Z,97700.34
2022-09-17T00:46:16.317Z,97701.53
2022-09-17T00:48:45.371Z,97694.66
2022-09-17T00:51:17.960Z,97693.91
2022-09-17T00:53:44.772Z,97702.91
2022-09-17T00:56:28.732Z,97702.31
2022-09-17T00:58:56.041Z,97697.22
2022-09-17T01:01:22.976Z,97701.66
2022-09-17T01:03:50.781Z,97702.81
2022-09-17T01:06:26.714Z,97704.72
2022-09-17T01:09:08.568Z,97696.19
2022-09-17T01:11:46.166Z,97696.94
2022-09-17T01:14:15.771Z,97701.47
2022-09-17T01:16:55.566Z,97705.78
2022-09-17T01:19:40.585Z,97698.69
2022-09-17T01:22:34.452Z,97704.22
2022-09-17T01:25:20.204Z,97701.56
2022-09-17T01:28:27.306Z,97699.75
2022-09-17T01:31:02.555Z,97695.44
2022-09-17T01:33:40.160Z,97696.38
2022-09-17T01:36:21.203Z,97684.47
2022-09-17T01:39:09.756Z,97688.91
2022-09-17T01:41:50.676Z,97696.09
2022-09-17T01:44:37.862Z,97693.44
2022-09-17T01:47:06.880Z,97681.00
2022-09-17T01:49:37.979Z,97679.94
2022-09-17T01:52:06.527Z,97683.63
2022-09-17T01:54:42.878Z,97694.38
2022-09-17T01:57:14.475Z,97686.69
2022-09-17T01:59:47.690Z,97688.59
2022-09-17T02:02:21.517Z,97682.25
2022-09-17T02:05:05.171Z,97673.59
2022-09-17T02:07:38.829Z,97683.31
2022-09-17T02:10:18.716Z,97684.56
2022-09-17T02:12:51.355Z,97696.09
2022-09-17T02:15:25.197Z,97704.00
2022-09-17T02:18:03.326Z,97705.06
2022-09-17T02:20:40.018Z,97710.34
2022-09-17T02:23:16.326Z,97719.00
2022-09-17T02:25:50.290Z,97708.44
2022-09-17T02:28:31.703Z,97703.34
2022-09-17T02:30:58.725Z,97692.69
2022-09-17T02:33:27.692Z,97687.31
2022-09-17T02:35:54.561Z,97679.41
2022-09-17T02:38:24.906Z,97678.44
2022-09-17T02:44:03.734Z,97685.53
2022-09-17T02:47:03.974Z,97675.94
2022-09-17T02:50:06.139Z,97678.66
2022-09-17T02:52:42.451Z,97692.69
2022-09-17T02:55:32.030Z,97694.50
2022-09-17T02:58:17.316Z,97690.59
2022-09-17T03:00:45.827Z,97689.13
2022-09-17T03:03:23.510Z,97693.13
2022-09-17T03:05:51.011Z,97696.09
2022-09-17T03:08:20.384Z,97699.72
2022-09-17T03:10:49.259Z,97704.38
2022-09-17T03:13:16.456Z,97694.13
2022-09-17T03:15:43.454Z,97702.88
2022-09-17T03:18:10.217Z,97696.03
2022-09-17T03:20:37.061Z,97708.25
2022-09-17T03:23:04.030Z,97702.22
2022-09-17T03:25:30.810Z,97702.53
2022-09-17T03:27:57.559Z,97700.78
2022-09-17T03:30:24.643Z,97696.25
2022-09-17T03:32:51.452Z,97701.53
2022-09-17T03:35:18.259Z,97690.22
2022-09-17T03:37:47.467Z,97694.84
2022-09-17T03:40:14.565Z,97693.34
2022-09-17T03:42:41.455Z,97694.50
2022-09-17T03:45:09.003Z,97698.19
2022-09-17T03:47:36.223Z,97698.41
2022-09-17T03:50:03.813Z,97691.56
2022-09-17T03:52:30.807Z,97691.75
2022-09-17T03:54:57.598Z,97691.13
2022-09-17T03:57:24.299Z,97688.66
2022-09-17T03:59:51.365Z,97692.34
2022-09-17T04:02:18.302Z,97693.69
2022-09-17T04:04:45.111Z,97688.06
2022-09-17T04:07:12.123Z,97677.84
2022-09-17T04:09:38.885Z,97674.34
2022-09-17T04:12:05.803Z,97683.09
2022-09-17T04:14:32.743Z,97672.69
2022-09-17T04:16:59.486Z,97680.69
2022-09-17T04:19:26.258Z,97684.47
2022-09-17T04:21:53.218Z,97686.25
2022-09-17T04:24:20.329Z,97678.25
2022-09-17T04:26:47.143Z,97682.56
2022-09-17T04:29:14.771Z,97682.47
2022-09-17T04:31:41.558Z,97686.88
2022-09-17T04:34:08.487Z,97692.06
2022-09-17T04:36:35.453Z,97683.09
2022-09-17T04:39:02.198Z,97689.03
2022-09-17T04:41:28.936Z,97681.97
2022-09-17T04:43:55.913Z,97680.72
2022-09-17T04:46:22.750Z,97672.59
2022-09-17T04:48:49.474Z,97668.84
2022-09-17T04:51:16.431Z,97679.06
2022-09-17T04:53:43.197Z,97669.16
2022-09-17T04:56:09.959Z,97672.44
2022-09-17T04:58:36.959Z,97665.28
2022-09-17T05:01:03.798Z,97671.06
2022-09-17T05:03:30.574Z,97665.63
2022-09-17T05:05:57.664Z,97666.97
2022-09-17T05:08:25.388Z,97671.84
2022-09-17T05:10:52.246Z,97672.50
2022-09-17T05:13:19.381Z,97667.00
2022-09-17T05:15:46.331Z,97669.56
2022-09-17T05:18:13.362Z,97671.75
2022-09-17T05:20:40.433Z,97669.75
2022-09-17T05:23:07.414Z,97674.00
2022-09-17T05:25:34.265Z,97688.03
2022-09-17T05:28:01.499Z,97689.31
2022-09-17T05:30:28.314Z,97702.41
2022-09-17T05:33:03.125Z,97700.59
2022-09-17T05:35:30.783Z,97689.88
2022-09-17T05:38:03.857Z,97691.66
2022-09-17T05:40:31.493Z,97692.28
2022-09-17T05:43:00.206Z,97695.13
2022-09-17T05:45:28.385Z,97694.50
2022-09-17T05:47:59.980Z,97697.44
2022-09-17T05:50:28.900Z,97696.59
2022-09-17T05:53:00.719Z,97694.25
2022-09-17T05:55:27.869Z,97686.53
2022-09-17T05:57:54.944Z,97680.59
2022-09-17T06:00:21.777Z,97678.13
2022-09-17T06:02:54.964Z,97677.34
2022-09-17T06:05:21.960Z,97692.13
2022-09-17T06:07:48.762Z,97699.13
2022-09-17T06:10:15.582Z,97697.28
2022-09-17T06:12:42.584Z,97703.59
2022-09-17T06:15:09.597Z,97706.03
2022-09-17T06:17:36.430Z,97715.19
2022-09-17T06:20:06.382Z,97711.16
2022-09-17T06:22:33.246Z,97709.72
2022-09-17T06:25:02.319Z,97706.28
2022-09-17T06:27:33.237Z,97696.47
2022-09-17T06:30:00.390Z,97706.03
2022-09-17T06:32:28.295Z,97691.22
2022-09-17T06:34:58.576Z,97692.41
2022-09-17T06:37:32.719Z,97689.28
2022-09-17T06:39:59.762Z,97695.88
2022-09-17T06:42:28.573Z,97699.84
2022-09-17T06:44:55.340Z,97700.28
2022-09-17T06:47:24.806Z,97704.91
2022-09-17T06:49:51.958Z,97708.59
2022-09-17T06:52:18.659Z,97714.63
2022-09-17T06:54:45.734Z,97718.00
2022-09-17T06:57:12.539Z,97710.53
2022-09-17T06:59:39.293Z,97720.25
2022-09-17T07:02:06.467Z,97714.34
2022-09-17T07:04:33.295Z,97712.53
2022-09-17T07:07:00.057Z,97724.94
2022-09-17T07:09:27.091Z,97728.53
2022-09-17T07:11:53.850Z,97728.63
2022-09-17T07:14:21.228Z,97714.13
2022-09-17T07:16:48.206Z,97710.25
2022-09-17T07:19:15.158Z,97713.13
2022-09-17T07:21:42.199Z,97718.22
2022-09-17T07:24:09.259Z,97718.88
2022-09-17T07:26:36.079Z,97712.00
2022-09-17T07:29:03.023Z,97719.78
2022-09-17T07:31:30.600Z,97723.50
2022-09-17T07:33:57.496Z,97717.66
2022-09-17T07:36:24.380Z,97726.75
2022-09-17T07:38:51.342Z,97724.66
2022-09-17T07:41:18.445Z,97709.50
2022-09-17T07:43:45.595Z,97705.97
2022-09-17T07:46:20.326Z,97710.75
2022-09-17T07:48:48.458Z,97716.91
2022-09-17T07:51:23.857Z,97713.69
2022-09-17T07:53:52.679Z,97717.19
2022-09-17T07:56:19.933Z,97708.63
2022-09-17T07:58:46.821Z,97714.38
2022-09-17T08:01:17.913Z,97721.38
2022-09-17T08:03:49.876Z,97720.97
2022-09-17T08:06:19.998Z,97728.41
2022-09-17T08:08:47.243Z,97727.97
2022-09-17T08:11:38.086Z,97725.31
2022-09-17T08:14:07.372Z,97715.34
2022-09-17T08:16:34.215Z,97706.94
2022-09-17T08:30:17.153Z,97712.16
2022-09-17T08:32:44.081Z,97718.13
2022-09-17T08:35:11.931Z,97721.91
2022-09-17T08:37:38.641Z,97712.66
2022-09-17T08:40:06.113Z,97711.47
2022-09-17T08:42:54.301Z,97713.44
2022-09-17T08:45:21.759Z,97712.44
2022-09-17T08:47:49.494Z,97715.06
2022-09-17T08:50:19.269Z,97708.84
2022-09-17T08:53:21.348Z,97705.06
2022-09-17T08:56:18.425Z,97710.22
2022-09-17T08:59:12.076Z,97715.81
2022-09-17T09:02:04.257Z,97704.97
2022-09-17T09:05:02.832Z,97696.78
2022-09-17T09:07:47.525Z,97685.03
2022-09-17T09:10:22.501Z,97691.25
2022-09-17T09:12:52.688Z,97684.00
2022-09-17T09:15:41.101Z,97674.31
2022-09-17T09:18:18.798Z,97680.59
2022-09-17T09:20:48.570Z,97679.34
2022-09-17T09:23:34.187Z,97683.13
2022-09-17T09:26:14.678Z,97685.81
2022-09-17T09:29:00.238Z,97681.47
2022-09-17T09:31:30.219Z,97672.03
2022-09-17T09:33:58.077Z,97667.44
2022-09-17T09:36:29.969Z,97674.88
2022-09-17T09:39:20.532Z,97683.28
2022-09-17T09:41:59.438Z,97691.19
2022-09-17T09:44:27.320Z,97686.06
2022-09-17T09:47:03.142Z,97682.53
2022-09-17T09:49:33.071Z,97677.53
2022-09-17T09:52:48.377Z,97660.34
2022-09-17T09:55:26.786Z,97654.66
2022-09-17T09:58:03.302Z,97656.75
2022-09-17T10:00:38.866Z,97657.53
2022-09-17T10:03:22.162Z,97668.47
2022-09-17T10:06:02.849Z,97666.00
2022-09-17T10:08:33.050Z,97649.03
2022-09-17T10:11:04.707Z,97648.03
2022-09-17T10:13:35.765Z,97654.09
2022-09-17T10:16:19.452Z,97665.28
2022-09-17T10:18:48.131Z,97661.44
2022-09-17T10:21:32.988Z,97658.94
2022-09-17T10:24:02.455Z,97665.72
2022-09-17T10:26:32.686Z,97663.56
2022-09-17T10:29:06.574Z,97653.88
2022-09-17T10:31:54.148Z,97656.50
2022-09-17T10:34:25.725Z,97657.25
2022-09-17T10:36:54.741Z,97649.41
2022-09-17T10:39:27.622Z,97644.00
2022-09-17T10:42:04.411Z,97656.47
2022-09-17T10:44:36.756Z,97662.25
2022-09-17T10:47:14.024Z,97656.69
2022-09-17T10:49:49.954Z,97653.13
2022-09-17T10:52:32.817Z,97646.28
2022-09-17T10:55:19.894Z,97648.63
2022-09-17T10:58:08.511Z,97662.34
2022-09-17T11:01:14.058Z,97661.34
2022-09-17T11:03:41.016Z,97659.75
2022-09-17T11:06:33.536Z,97674.53
2022-09-17T11:09:19.835Z,97679.59
2022-09-17T11:12:18.004Z,97671.00
2022-09-17T11:15:16.583Z,97672.13
2022-09-17T11:18:41.591Z,97680.16
2022-09-17T11:21:43.080Z,97675.22
2022-09-17T11:24:18.917Z,97677.91
2022-09-17T11:26:51.970Z,97664.56
2022-09-17T11:29:27.893Z,97669.53
2022-09-17T11:32:03.958Z,97666.28
2022-09-17T11:34:51.132Z,97661.94
2022-09-17T11:37:29.170Z,97657.75
2022-09-17T11:40:22.695Z,97659.59
2022-09-17T11:42:55.569Z,97657.16
2022-09-17T11:45:31.934Z,97648.19
2022-09-17T11:48:01.791Z,97657.91
2022-09-17T11:50:35.514Z,97660.84
2022-09-17T11:53:25.334Z,97649.84
2022-09-17T11:56:03.920Z,97647.28
2022-09-17T11:58:43.060Z,97645.09
2022-09-17T12:01:15.989Z,97645.41
2022-09-17T12:03:51.030Z,97647.31
2022-09-17T12:06:25.928Z,97651.25
2022-09-17T12:09:03.449Z,97647.25
2022-09-17T12:11:57.998Z,97645.25
2022-09-17T12:14:31.060Z,97637.78
2022-09-17T12:17:02.058Z,97641.44
2022-09-17T12:19:43.141Z,97646.78
2022-09-17T12:22:15.834Z,97645.34
2022-09-17T12:24:43.276Z,97651.41
2022-09-17T12:27:38.181Z,97646.56
2022-09-17T12:30:09.982Z,97630.75
2022-09-17T12:32:58.638Z,97628.03
2022-09-17T12:36:03.430Z,97614.03
2022-09-17T12:38:46.926Z,97623.97
2022-09-17T12:41:13.921Z,97620.22
2022-09-17T12:43:59.539Z,97614.94
2022-09-17T12:46:41.626Z,97616.69
2022-09-17T12:49:31.702Z,97606.09
2022-09-17T12:52:12.754Z,97612.91
2022-09-17T12:54:51.566Z,97607.03
2022-09-17T12:57:36.850Z,97596.53
2022-09-17T13:00:11.460Z,97596.59
2022-09-17T13:03:06.122Z,97594.88
2022-09-17T13:05:55.147Z,97595.50
2022-09-17T13:08:25.071Z,97597.53
2022-09-17T13:11:29.160Z,97593.19
2022-09-17T13:14:03.803Z,97589.84
2022-09-17T13:16:49.981Z,97583.13
2022-09-17T13:19:23.121Z,97575.34
2022-09-17T13:22:00.405Z,97582.91
2022-09-17T13:24:31.319Z,97584.84
2022-09-17T13:27:01.377Z,97579.75
2022-09-17T13:29:43.520Z,97564.25
2022-09-17T13:32:32.993Z,97555.50
2022-09-17T13:35:12.168Z,97547.53
2022-09-17T13:37:45.084Z,97543.56
2022-09-17T13:40:32.287Z,97537.63
2022-09-17T13:43:17.370Z,97533.81
2022-09-17T13:45:59.709Z,97525.66
2022-09-17T13:48:32.799Z,97519.44
2022-09-17T13:51:34.824Z,97530.91
2022-09-17T13:54:05.248Z,97542.06
2022-09-17T13:56:41.423Z,97539.47
2022-09-17T13:59:11.739Z,97541.06
2022-09-17T14:01:57.509Z,97546.56
2022-09-17T14:04:42.231Z,97543.72
2022-09-17T14:07:21.409Z,97539.63
2022-09-17T14:09:54.965Z,97533.00
2022-09-17T14:12:50.884Z,97534.13
2022-09-17T14:15:38.772Z,97528.94
2022-09-17T14:18:36.115Z,97533.50
2022-09-17T14:21:08.738Z,97537.19
2022-09-17T14:23:44.000Z,97542.91
2022-09-17T14:26:39.712Z,97552.19
2022-09-17T14:29:43.755Z,97542.97
2022-09-17T14:32:17.448Z,97548.91
2022-09-17T14:34:44.473Z,97539.00
2022-09-17T14:37:14.467Z,97536.81
2022-09-17T14:39:41.374Z,97534.28
2022-09-17T14:42:17.994Z,97516.56
2022-09-17T14:44:52.565Z,97513.06
2022-09-17T14:47:20.535Z,97510.72
2022-09-17T14:49:47.487Z,97514.69
2022-09-17T14:52:26.791Z,97514.31
2022-09-17T14:55:26.477Z,97502.25
2022-09-17T14:57:55.890Z,97483.59
2022-09-17T15:00:30.161Z,97493.25
2022-09-17T15:03:00.406Z,97487.09
2022-09-17T15:05:31.505Z,97488.78
2022-09-17T15:08:10.147Z,97495.41
2022-09-17T15:11:11.991Z,97488.75
2022-09-17T15:13:50.058Z,97503.91
2022-09-17T15:16:21.644Z,97500.47
2022-09-17T15:18:52.401Z,97501.78
2022-09-17T15:21:28.030Z,97493.28
2022-09-17T15:24:06.851Z,97480.03
2022-09-17T15:26:37.682Z,97481.88
2022-09-17T15:29:05.828Z,97482.06
2022-09-17T15:31:32.735Z,97488.56
2022-09-17T15:34:01.030Z,97498.09
2022-09-17T15:36:28.090Z,97500.91
2022-09-17T15:38:55.027Z,97504.56
2022-09-17T15:41:32.153Z,97508.31
2022-09-17T15:44:31.271Z,97525.00
2022-09-17T15:47:37.890Z,97521.50
2022-09-17T15:50:14.417Z,97519.69
2022-09-17T15:52:42.374Z,97518.41
2022-09-17T15:55:34.882Z,97521.75
2022-09-17T15:58:19.466Z,97513.31
2022-09-17T16:00:46.385Z,97523.53
2022-09-17T16:03:38.208Z,97525.88
2022-09-17T16:06:25.766Z,97517.97
2022-09-17T16:08:56.731Z,97527.31
2022-09-17T16:11:26.076Z,97515.41
2022-09-17T16:13:55.054Z,97520.44
2022-09-17T16:16:32.645Z,97528.59
2022-09-17T16:18:59.910Z,97530.34
2022-09-17T16:21:27.003Z,97532.13
2022-09-17T16:23:54.187Z,97542.44
2022-09-17T16:26:30.122Z,97539.97
2022-09-17T16:29:02.834Z,97541.03
2022-09-17T16:31:30.328Z,97550.59
2022-09-17T16:33:57.193Z,97552.69
2022-09-17T16:36:24.296Z,97553.06
2022-09-17T16:38:51.266Z,97557.31
2022-09-17T16:41:18.018Z,97561.31
2022-09-17T16:43:44.754Z,97557.31
2022-09-17T16:46:12.076Z,97557.84
2022-09-17T16:48:39.402Z,97560.38
2022-09-17T16:51:10.509Z,97548.50
2022-09-17T16:53:38.229Z,97549.59
2022-09-17T16:56:09.782Z,97545.00
2022-09-17T16:58:37.042Z,97540.59
2022-09-17T17:01:11.945Z,97545.41
2022-09-17T17:03:39.262Z,97547.56
2022-09-17T17:06:07.375Z,97551.22
2022-09-17T17:08:34.524Z,97558.78
2022-09-17T17:11:01.456Z,97551.31
2022-09-17T17:13:28.893Z,97556.16
2022-09-17T17:15:55.694Z,97564.22
2022-09-17T17:18:24.599Z,97561.19
2022-09-17T17:20:51.736Z,97556.84
2022-09-17T17:23:18.483Z,97558.81
2022-09-17T17:25:45.300Z,97560.72
2022-09-17T17:28:12.290Z,97564.31
2022-09-17T17:30:39.055Z,97560.00
2022-09-17T17:33:06.002Z,97561.78
2022-09-17T17:35:33.028Z,97550.97
2022-09-17T17:37:59.737Z,97553.72
2022-09-17T17:40:26.828Z,97549.41
2022-09-17T17:42:54.853Z,97560.00
2022-09-17T17:45:22.081Z,97558.44
2022-09-17T17:47:48.911Z,97552.41
2022-09-17T17:50:16.081Z,97552.63
2022-09-17T17:52:47.934Z,97547.59
2022-09-17T17:55:16.397Z,97544.09
2022-09-17T17:57:43.424Z,97543.38
2022-09-17T18:00:12.498Z,97543.59
2022-09-17T18:02:40.377Z,97537.72
2022-09-17T18:05:07.706Z,97532.78
2022-09-17T18:07:34.532Z,97530.25
2022-09-17T18:10:01.299Z,97524.34
2022-09-17T18:12:28.340Z,97527.09
2022-09-17T18:14:55.121Z,97526.38
2022-09-17T18:17:22.054Z,97526.47
2022-09-17T18:19:49.022Z,97512.66
2022-09-17T18:22:15.830Z,97520.81
2022-09-17T18:24:42.705Z,97516.59
2022-09-17T18:27:09.858Z,97518.41
2022-09-17T18:29:36.603Z,97520.09
2022-09-17T18:32:03.342Z,97520.44
2022-09-17T18:34:30.412Z,97513.47
2022-09-17T18:36:57.178Z,97511.66
2022-09-17T18:42:11.618Z,97500.47
2022-09-17T18:44:38.423Z,97499.41
2022-09-17T18:47:05.339Z,97489.91
2022-09-17T18:49:32.514Z,97490.75
2022-09-17T18:51:59.289Z,97500.38
2022-09-17T18:54:26.130Z,97498.69
2022-09-17T18:56:53.117Z,97500.72
2022-09-17T18:59:19.909Z,97508.53
2022-09-17T19:01:46.883Z,97506.97
2022-09-17T19:04:13.931Z,97502.75
2022-09-17T19:06:40.912Z,97511.66
2022-09-17T19:09:07.723Z,97503.81
2022-09-17T19:11:36.316Z,97503.09
2022-09-17T19:14:03.303Z,97495.41
2022-09-17T19:16:30.126Z,97498.28
2022-09-17T19:18:57.235Z,97495.03
2022-09-17T19:21:24.103Z,97492.50
2022-09-17T19:23:52.252Z,97491.66
2022-09-17T19:26:20.816Z,97498.03
2022-09-17T19:28:48.071Z,97495.47
2022-09-17T19:31:16.403Z,97495.63
2022-09-17T19:33:44.540Z,97506.28
2022-09-17T19:36:14.835Z,97503.75
2022-09-17T19:38:42.255Z,97501.34
2022-09-17T19:41:17.406Z,97509.50
2022-09-17T19:43:47.930Z,97500.72
2022-09-17T19:46:18.153Z,97493.88
2022-09-17T19:48:53.980Z,97483.66
2022-09-17T19:51:24.888Z,97481.00
2022-09-17T19:53:52.858Z,97477.53
2022-09-17T19:56:22.890Z,97482.94
2022-09-17T19:58:50.591Z,97481.25
2022-09-17T20:01:18.375Z,97479.69
2022-09-17T20:03:46.160Z,97484.09
2022-09-17T20:06:16.932Z,97483.28
2022-09-17T20:08:47.041Z,97489.63
2022-09-17T20:11:15.232Z,97480.00
2022-09-17T20:13:42.320Z,97485.53
2022-09-17T20:16:12.241Z,97497.91
2022-09-17T20:18:39.537Z,97503.53
2022-09-17T20:21:10.799Z,97511.44
2022-09-17T20:23:37.578Z,97508.69
2022-09-17T20:26:04.896Z,97499.19
2022-09-17T20:28:31.952Z,97503.63
2022-09-17T20:31:07.390Z,97499.19
2022-09-17T20:33:34.735Z,97495.59
2022-09-17T20:36:06.637Z,97496.34
2022-09-17T20:41:21.394Z,97503.63
2022-09-17T20:43:50.054Z,97508.81
2022-09-17T20:46:18.323Z,97509.00
2022-09-17T20:48:45.817Z,97506.28
2022-09-17T20:51:18.452Z,97498.09
2022-09-17T20:53:48.758Z,97488.41
2022-09-17T20:56:18.893Z,97487.78
2022-09-17T20:58:51.865Z,97492.13
2022-09-17T21:01:22.072Z,97495.72
2022-09-17T21:03:51.370Z,97487.88
2022-09-17T21:06:19.236Z,97496.28
2022-09-17T21:08:47.014Z,97495.09
2022-09-17T21:11:14.636Z,97482.75
2022-09-17T21:13:41.966Z,97486.13
2022-09-17T21:16:10.138Z,97488.75
2022-09-17T21:18:39.779Z,97480.69
2022-09-17T21:21:09.996Z,97478.91
2022-09-17T21:23:39.387Z,97474.56
2022-09-17T21:26:15.211Z,97477.22
2022-09-17T21:28:44.716Z,97479.75
2022-09-17T21:31:13.949Z,97475.53
2022-09-17T21:33:41.433Z,97474.19
2022-09-17T21:36:11.307Z,97468.69
2022-09-17T21:38:38.625Z,97465.19
2022-09-17T21:41:08.912Z,97459.06
2022-09-17T21:43:36.807Z,97460.16
2022-09-17T21:46:09.571Z,97460.16
2022-09-17T21:48:41.895Z,97452.31
2022-09-17T21:51:11.743Z,97447.03
2022-09-17T21:53:38.913Z,97438.38
2022-09-17T21:56:14.121Z,97444.75
2022-09-17T21:58:42.574Z,97443.91
2022-09-17T22:01:10.909Z,97433.69
2022-09-17T22:03:38.077Z,97430.31
2022-09-17T22:06:08.434Z,97437.41
2022-09-17T22:08:35.295Z,97434.97
2022-09-17T22:11:19.981Z,97435.22
2022-09-17T22:13:56.123Z,97428.25
2022-09-17T22:16:24.434Z,97427.38
2022-09-17T22:18:51.687Z,97422.34
2022-09-17T22:21:22.789Z,97418.00
2022-09-17T22:23:51.219Z,97422.44
2022-09-17T22:26:19.530Z,97418.25
2022-09-17T22:28:47.003Z,97420.16
2022-09-17T22:31:14.904Z,97421.22
2022-09-17T22:33:44.779Z,97414.47
2022-09-17T22:36:14.665Z,97413.75
2022-09-17T22:38:45.343Z,97409.53
2022-09-17T22:41:17.854Z,97399.13
2022-09-17T22:43:45.531Z,97398.25
2022-09-17T22:46:14.037Z,97400.06
2022-09-17T22:48:41.186Z,97394.16
2022-09-17T22:51:08.609Z,97391.50
2022-09-17T22:53:36.478Z,97395.22
2022-09-17T22:56:09.175Z,97388.38
2022-09-17T22:58:36.045Z,97392.81
2022-09-17T23:01:06.484Z,97398.31
2022-09-17T23:03:33.897Z,97394.09
2022-09-17T23:06:02.466Z,97402.00
2022-09-17T23:08:29.379Z,97402.13
2022-09-17T23:10:56.590Z,97404.66
2022-09-17T23:13:23.911Z,97403.94
2022-09-17T23:15:50.745Z,97398.75
2022-09-17T23:18:17.886Z,97400.63
2022-09-17T23:20:44.717Z,97398.94
2022-09-17T23:23:11.645Z,97404.22
2022-09-17T23:25:38.586Z,97402.44
2022-09-17T23:28:05.310Z,97395.47
2022-09-17T23:30:32.042Z,97392.81
2022-09-17T23:32:58.984Z,97385.03
2022-09-17T23:35:25.767Z,97393.78
2022-09-17T23:37:52.537Z,97387.69
2022-09-17T23:40:20.810Z,97387.69
2022-09-17T23:42:47.928Z,97388.63
2022-09-17T23:45:14.743Z,97381.66
2022-09-17T23:47:41.660Z,97381.66
2022-09-17T23:50:08.821Z,97381.78
2022-09-17T23:52:35.571Z,97372.88
2022-09-17T23:55:02.549Z,97371.94
2022-09-17T23:57:30.439Z,97373.75
2022-09-17T23:59:57.237Z,97370.06
